Stansbury Park, UT

4:59 PM MDT on May 27, 2015 (GMT -0600)
KUTERDA2 | | Change Station
CLOSE
Current Station
Personal Weather Station
Location: Erda, UT
Elevation: 4381 ft
Nearby Weather Stations

Elev 4381 ft 40.60 °N, 112.32 °W | Updated 29 minutes ago

Overcast
Overcast
66.2 °F
Feels Like 66.2 °F
N
0.0
Wind Variable Wind from NNE
Gusts 0.0 mph

Today
High -- | Low -- °F
--% Chance of Precip.
Yesterday
High -- | Low -- °F
Precip. -- in
6:03 AM 8:49 PM
Waxing Gibbous, 71% visible
Pressure 30.05 in
Visibility 10.0 miles
Clouds Scattered Clouds 2600 ft
Mostly Cloudy 4700 ft
Overcast 7000 ft
Dew Point 51 °F
Humidity 58%
Rainfall 0.01 in
Snow Depth Not available.
UV 3 out of 12
Pollen 5.60 out of 12
Air Quality Not available.
Flu Activity Sporadic
METAR KU42 272155Z AUTO 34004KT 10SM SCT026 BKN047 OVC070 18/11 A3005 RMK AO1 T01830105

More Conditions Fewer Conditions

Pressure 30.05 in
Visibility 10.0 miles
Clouds Scattered Clouds 2600 ft
Mostly Cloudy 4700 ft
Overcast 7000 ft
Dew Point 51 °F
Humidity 58%
Rainfall 0.01 in
Snow Depth Not available.
UV 3 out of 12
Pollen 5.60 out of 12
Air Quality Not available.
Flu Activity Sporadic
METAR KU42 272155Z AUTO 34004KT 10SM SCT026 BKN047 OVC070 18/11 A3005 RMK AO1 T01830105

More Conditions Fewer Conditions

Nowcast | as of 3:34 PM MDT on May 27, 2015

Scattered showers and thunderstorms will continue across portions of northern and central Utah this afternoon. The strongest storms at 330 PM were located near Holladay...just southwest of Delta...between Kings Canyon and Black Rock...and northeast of Mount Pleasant. The strongest activity will be capable of producing cloud to ground lightning...hail...brief heavy rainfall...and gusty winds.

×

10-Day Weather Forecast

Almanac

Astronomy

May. 27, 2015 Rise Set
Actual Time
Civil Twilight
Nautical Twilight
Astronomical Twilight
Moon
Length of Visible Light
Length of Day
Tomorrow will be .
, % of the Moon is Illuminated

Today's Extremes

State Highs State Lows

Community

WunderPhotos

Upload Photos

1,824,814 photos uploaded!

WunderBlogs® & News

Nearby

Air Quality

  Air Quality AQ Index Pollutant
Not available.

Snow Depth

Station Depth Elevation

Earthquake Activity

City Distance Mag. Time & Date
Minimum magnitude displayed is 2.5.

Coastal Water Temperatures

Place Temperature

Stations

Nearby Weather Stations

Station Location Temp. Windchill Dew Point Humidity Wind Precip. Elev Updated Type